Wahoo, NE

7:04 PM CST on January 31, 2015 (GMT -0600)
Wahoo Municipal | Change Station
CLOSE
Current Station
Airport
Location: Wahoo,
Elevation: 1224 ft
Nearby Weather Stations
Active Advisory: Winter Weather Advisory

Elev 1224 ft 41.24 °N, 96.59 °W | Updated 9 minutes ago

Light Snow
Light Snow
33 °F
Feels Like 28 °F
N
6
Wind Variable Wind from East

Today
High -- | Low -- °F
--% Chance of Precip.
Yesterday
High -- | Low -- °F
Precip. -- in
7:38 AM 5:41 PM
Waxing Gibbous, 92% visible
Pressure 29.93 in
Visibility 1.8 miles
Clouds Overcast 400 ft
Windchill 28 °F
Dew Point 32 °F
Humidity 94%
Rainfall 0.28 in
Snow Depth Not available.
UV 0 out of 12
Pollen .10 out of 12
Air Quality Not available.
Flu Activity Not available.
METAR KAHQ 010055Z AUTO 10005KT 1 3/4SM -SN OVC004 01/00 A2993 RMK AO2 P0002 T00051003

More Conditions Fewer Conditions

Pressure 29.93 in
Visibility 1.8 miles
Clouds Overcast 400 ft
Windchill 28 °F
Dew Point 32 °F
Humidity 94%
Rainfall 0.28 in
Snow Depth Not available.
UV 0 out of 12
Pollen .10 out of 12
Air Quality Not available.
Flu Activity Not available.
METAR KAHQ 010055Z AUTO 10005KT 1 3/4SM -SN OVC004 01/00 A2993 RMK AO2 P0002 T00051003

More Conditions Fewer Conditions

10-Day Weather Forecast

Almanac

Astronomy

Jan. 31, 2015 Rise Set
Actual Time
Civil Twilight
Nautical Twilight
Astronomical Twilight
Moon
Length of Visible Light
Length of Day
Tomorrow will be .
, % of the Moon is Illuminated

Today's Extremes

State Highs State Lows

Community

WunderPhotos

Upload Photos

1,792,268 photos uploaded!

WunderBlogs® & News

Nearby

Air Quality

  Air Quality AQ Index Pollutant
Not available.

Snow Depth

Station Depth Elevation

Earthquake Activity

City Distance Mag. Time & Date
Minimum magnitude displayed is 2.5.

Coastal Water Temperatures

Place Temperature

Nearby Weather Stations